Dalry, United Kingdom
Current Conditions -  °F | °C
As of 4:50 AM on Friday 31 Oct 2014 (Local Time) from EGPK Reporting Station
Broken Clouds Broken Clouds  
Wind Chill: 59°   Ceiling: 1300
Heat Index: 59°   Visibility: 6mi
Dew Point: 55°   Wind: 12mph
Humidity: 88%   Direction: 170°S
Pressure: 29.77"   Gusts: NA
Location:  55.68°N, 4.72°W
Report Text: EGPK 310450Z 17010KT 9999 BKN013 15/13 Q1008
Loading
Personal Weather Stations






























Interactive Weather Map
Tropical Storm Tracking
New forecast layout! Learn more

10-Day Weather Forecast

Advertisements
Track Severe Weather on mobile